Zenda, WI (53195)

12:05 PM CDT on July 30, 2016 (GMT -0500)
Cornfield | | Change Station

Elev 965 ft 42.46 °N, 88.48 °W | Updated 22 seconds ago

Scattered Clouds
Scattered Clouds
74.4 °F
Feels Like 75 °F
N
0.0
Wind Variable Wind from NE
Gusts 1.0 mph

Today
High -- | Low -- °F
--% Chance of Precip.
Yesterday
High -- | Low -- °F
Precip. -- in
Pressure 30.02 in
Visibility 10.0 miles
Clouds Scattered Clouds 3100 ft
Heat Index 75 °F
Dew Point 67 °F
Humidity 78%
Rainfall 0.00 in
Snow Depth Not available.
5:44 AM 8:15 PM
Waning Crescent, 12% visible
METAR KBUU 301655Z AUTO 05003KT 10SM SCT031 24/16 A3002 RMK AO2 T02430155
Pressure 30.02 in
Visibility 10.0 miles
Clouds Scattered Clouds 3100 ft
Heat Index 75 °F
Dew Point 67 °F
Humidity 78%
Rainfall 0.00 in
Snow Depth Not available.
5:44 AM 8:15 PM
Waning Crescent, 12% visible
METAR KBUU 301655Z AUTO 05003KT 10SM SCT031 24/16 A3002 RMK AO2 T02430155

10-Day Weather Forecast

Almanac

Astronomy

Jul. 30, 2016 Rise Set
Actual Time
Civil Twilight
Nautical Twilight
Astronomical Twilight
Moon
Length of Visible Light
Length of Day
Tomorrow will be .
, % of the Moon is Illuminated

Today's Extremes

State Highs State Lows

Community

WunderPhotos

Upload Photos

1,928,598 photos uploaded!

WunderBlog® & News

Nearby

Air Quality

  Air Quality AQ Index Pollutant
Not available.

Snow Depth

Station Depth Elevation

Earthquake Activity

City Distance Mag. Time & Date
Minimum magnitude displayed is 2.5.

Coastal Water Temperatures

Place Temperature

Stations

Nearby Weather Stations

Station Location Temp. Windchill Dew Point Humidity Wind Precip. Elev Updated Type
                   

Watches & Warnings

There are currently no watches in effect.